Time;durP1;ratioP1;P1;durP2;ratioP2;P2;SDS_P1;SDS_P2;PMS_P1;PMS_P2;Temp;Humidity;BMP_temperature;BMP_pressure;BME280_temperature;BME280_humidity;BME280_pressure;Samples;Min_cycle;Max_cycle;Signal;HPM_P1;HPM_P2
2021/03/10 05:52:23;;;;;;;19.77;9.53;;;;;;;-3.23;66.24;99262.95;1719841;81;21164;-57
2021/03/10 05:54:52;;;;;;;16.63;8.13;;;;;;;-2.99;65.82;99265.03;1716784;83;21136;-58
2021/03/10 05:57:23;;;;;;;17.83;8.10;;;;;;;-2.82;64.85;99256.53;1675791;83;21563;-57
2021/03/10 05:59:52;;;;;;;14.47;7.73;;;;;;;-2.66;64.01;99263.50;1721628;83;21173;-58
2021/03/10 06:02:22;;;;;;;20.57;8.27;;;;;;;-2.60;62.82;99268.67;1712219;83;21210;-53
2021/03/10 06:04:53;;;;;;;16.93;8.30;;;;;;;-2.63;62.70;99272.31;1689010;83;22285;-58
2021/03/10 06:07:23;;;;;;;17.25;7.78;;;;;;;-2.57;62.64;99267.98;1717223;82;21296;-58
2021/03/10 06:10:02;;;;;;;17.03;8.10;;;;;;;-2.50;62.22;99276.91;1721942;83;21140;-55
2021/03/10 06:12:44;;;;;;;18.23;8.35;;;;;;;-2.45;61.80;99271.41;1720306;83;21197;-54
2021/03/10 06:15:18;;;;;;;21.87;7.93;;;;;;;-2.43;61.80;99280.67;1700383;82;21207;-55
2021/03/10 06:17:52;;;;;;;19.03;7.27;;;;;;;-2.39;61.65;99280.45;1707860;83;21129;-59
2021/03/10 06:20:32;;;;;;;17.37;7.33;;;;;;;-2.29;61.77;99276.25;1706662;82;21572;-56
2021/03/10 06:23:10;;;;;;;19.80;8.03;;;;;;;-2.18;61.46;99282.69;1719889;83;21136;-58
2021/03/10 06:25:39;;;;;;;18.80;7.97;;;;;;;-2.13;61.28;99279.29;1719722;83;21156;-55
2021/03/10 06:28:10;;;;;;;17.03;7.40;;;;;;;-2.15;61.19;99283.29;1714432;83;21155;-54
2021/03/10 06:30:42;;;;;;;15.97;7.87;;;;;;;-2.16;61.18;99287.29;1712015;83;21177;-55
2021/03/10 06:33:23;;;;;;;19.10;7.40;;;;;;;-2.12;60.85;99287.86;1704622;84;21330;-54
2021/03/10 06:35:53;;;;;;;14.63;6.73;;;;;;;-2.15;60.47;99287.64;1698416;83;21690;-57
2021/03/10 06:38:26;;;;;;;15.20;6.63;;;;;;;-2.21;60.77;99288.92;1724081;83;21144;-56
2021/03/10 06:40:59;;;;;;;15.23;6.10;;;;;;;-2.18;60.09;99295.61;1723736;83;21706;-55
2021/03/10 06:43:40;;;;;;;14.37;6.77;;;;;;;-2.12;59.57;99293.02;1703086;83;21152;-50
2021/03/10 06:46:18;;;;;;;16.73;7.60;;;;;;;-2.14;58.74;99295.27;1721807;83;21133;-54
2021/03/10 06:49:05;;;;;;;17.83;8.27;;;;;;;-2.15;59.05;99298.79;1719306;83;21161;-54
2021/03/10 06:51:36;;;;;;;15.47;6.57;;;;;;;-2.12;58.55;99292.59;1717577;83;21167;-55
2021/03/10 06:54:09;;;;;;;18.43;6.93;;;;;;;-2.08;56.99;99291.86;1699010;83;21200;-58
2021/03/10 06:56:40;;;;;;;19.87;6.93;;;;;;;-2.19;56.62;99297.37;1699080;83;21219;-62
2021/03/10 06:59:11;;;;;;;18.43;7.70;;;;;;;-2.25;56.44;99296.54;1721167;83;21567;-61
2021/03/10 07:01:42;;;;;;;20.13;8.53;;;;;;;-2.27;57.10;99299.72;1720705;83;21175;-56
2021/03/10 07:04:12;;;;;;;14.43;6.30;;;;;;;-2.18;56.56;99293.02;1721386;83;21598;-60
2021/03/10 07:06:42;;;;;;;14.03;6.40;;;;;;;-2.09;55.87;99294.09;1721549;83;21208;-58
2021/03/10 07:09:17;;;;;;;15.93;7.70;;;;;;;-2.06;55.65;99297.28;1722335;83;21188;-58
2021/03/10 07:11:46;;;;;;;15.13;6.47;;;;;;;-1.97;56.42;99299.14;1722917;83;21215;-62
2021/03/10 07:14:17;;;;;;;;;;;;;;;-1.78;56.33;99292.09;1723980;83;21193;-59
2021/03/10 07:16:48;;;;;;;12.23;5.78;;;;;;;-1.59;56.08;99303.14;1674217;82;20216;-59
2021/03/10 07:19:20;;;;;;;14.57;6.97;;;;;;;-1.39;55.21;99301.56;1718058;82;21567;-61
2021/03/10 07:21:58;;;;;;;13.38;6.47;;;;;;;-1.26;55.08;99295.79;1720735;83;21214;-58
2021/03/10 07:24:44;;;;;;;16.77;6.93;;;;;;;-1.09;54.30;99301.73;1721949;83;21147;-54
2021/03/10 07:27:17;;;;;;;15.83;6.23;;;;;;;-0.95;53.62;99289.45;1720128;83;21737;-55
2021/03/10 07:29:46;;;;;;;17.00;6.53;;;;;;;-0.91;52.51;99293.44;1724858;82;21136;-59
2021/03/10 07:32:25;;;;;;;20.57;6.27;;;;;;;-0.84;52.40;99290.69;1731050;81;21146;-58
2021/03/10 07:35:06;;;;;;;16.37;6.50;;;;;;;-0.74;51.76;99294.66;1720031;82;21663;-58
2021/03/10 07:37:43;;;;;;;14.97;6.67;;;;;;;-0.76;51.18;99284.87;1681501;84;21168;-61
2021/03/10 07:40:15;;;;;;;19.97;6.80;;;;;;;-0.82;51.89;99294.78;1718483;83;21525;-57
2021/03/10 07:42:55;;;;;;;13.17;5.97;;;;;;;-0.77;51.73;99294.89;1715578;82;21164;-55
2021/03/10 07:45:28;;;;;;;11.33;5.13;;;;;;;-0.73;50.77;99283.34;1691642;85;21319;-54
2021/03/10 07:47:58;;;;;;;12.93;6.00;;;;;;;-0.76;49.91;99279.23;1703462;82;21147;-53
2021/03/10 07:50:46;;;;;;;14.97;6.27;;;;;;;-0.84;49.73;99288.10;1728803;82;21124;-56
2021/03/10 07:53:15;;;;;;;11.30;5.63;;;;;;;-0.87;49.32;99285.75;1696427;84;21195;-57
2021/03/10 07:55:51;;;;;;;18.47;5.70;;;;;;;-0.88;49.80;99291.40;1681659;85;21233;-56
2021/03/10 07:58:29;;;;;;;19.40;7.00;;;;;;;-0.80;50.10;99285.63;1669611;84;21230;-61
2021/03/10 08:00:59;;;;;;;15.00;5.60;;;;;;;-0.65;50.24;99283.05;1644497;86;21570;-58
2021/03/10 08:03:33;;;;;;;17.50;7.43;;;;;;;-0.55;49.07;99277.95;1691566;83;21172;-57
2021/03/10 08:06:10;;;;;;;21.80;8.13;;;;;;;-0.60;49.65;99277.50;1691030;83;21183;-53
2021/03/10 08:08:43;;;;;;;18.10;6.03;;;;;;;-0.60;49.05;99270.55;1686710;83;21618;-57
2021/03/10 08:11:18;;;;;;;16.80;7.53;;;;;;;-0.67;48.90;99269.42;1711709;83;21286;-58
2021/03/10 08:13:55;;;;;;;14.73;5.87;;;;;;;-0.80;49.19;99272.68;1693788;83;21630;-55
2021/03/10 08:16:27;;;;;;;21.37;8.27;;;;;;;-0.88;48.48;99266.81;1694236;84;21306;-52
2021/03/10 08:18:57;;;;;;;17.52;5.97;;;;;;;-0.92;48.83;99273.65;1654803;84;21205;-63
2021/03/10 08:21:30;;;;;;;13.83;5.80;;;;;;;-0.90;49.09;99277.77;1677721;85;21754;-56
2021/03/10 08:24:01;;;;;;;13.58;5.80;;;;;;;-0.87;49.21;99245.63;1679099;83;21325;-55
2021/03/10 08:26:34;;;;;;;13.93;5.93;;;;;;;-0.77;49.46;99262.06;1699414;83;21222;-60
2021/03/10 08:29:04;;;;;;;13.30;5.83;;;;;;;-0.62;48.83;99267.28;1695263;84;21188;-53
2021/03/10 08:31:49;;;;;;;14.30;6.40;;;;;;;-0.52;48.99;99267.32;1691056;84;21243;-57
2021/03/10 08:34:36;;;;;;;16.03;6.87;;;;;;;-0.43;48.29;99276.11;1673184;83;21197;-55
2021/03/10 08:37:08;;;;;;;14.70;5.57;;;;;;;-0.38;48.83;99267.02;1711763;83;21658;-58
2021/03/10 08:39:47;;;;;;;39.33;6.73;;;;;;;-0.38;49.09;99264.89;1707083;83;21744;-55
2021/03/10 08:42:23;;;;;;;14.73;5.83;;;;;;;-0.41;48.75;99278.09;1675365;84;21341;-59
2021/03/10 08:44:53;;;;;;;16.50;6.20;;;;;;;-0.37;49.09;99271.23;1693794;83;21178;-58
2021/03/10 08:47:25;;;;;;;17.65;6.92;;;;;;;-0.37;49.10;99273.83;1691712;85;21327;-59
2021/03/10 08:49:59;;;;;;;17.95;5.90;;;;;;;-0.35;49.47;99273.69;1691569;85;21170;-58
2021/03/10 08:52:29;;;;;;;15.40;5.97;;;;;;;-0.27;49.66;99273.89;1707574;82;21213;-54
2021/03/10 08:55:02;;;;;;;13.83;6.87;;;;;;;-0.23;49.43;99271.84;1724859;83;21160;-56
2021/03/10 08:57:36;;;;;;;15.33;6.50;;;;;;;-0.17;49.75;99264.40;1676295;83;21218;-60
2021/03/10 09:00:20;;;;;;;16.27;6.47;;;;;;;-0.15;49.08;99272.04;1685417;84;21194;-62
2021/03/10 09:02:51;;;;;;;13.77;6.70;;;;;;;-0.20;49.90;99267.72;1720796;83;21390;-56
2021/03/10 09:05:28;;;;;;;28.27;12.33;;;;;;;-0.24;49.55;99264.55;1734272;81;21308;-54
2021/03/10 09:07:59;;;;;;;15.07;7.17;;;;;;;-0.19;50.29;99266.76;1735331;81;21303;-58
2021/03/10 09:10:30;;;;;;;14.63;6.15;;;;;;;-0.02;50.04;99270.04;1723397;81;21583;-54
2021/03/10 09:13:01;;;;;;;13.47;6.60;;;;;;;0.05;49.33;99265.97;1736870;81;21334;-55
2021/03/10 09:15:32;;;;;;;15.72;7.50;;;;;;;0.00;49.04;99262.98;1734183;81;21345;-56
2021/03/10 09:18:07;;;;;;;13.83;6.63;;;;;;;-0.10;49.91;99269.41;1728010;81;21310;-60
2021/03/10 09:20:40;;;;;;;15.90;7.10;;;;;;;-0.14;50.40;99262.83;1745976;82;21341;-60
2021/03/10 09:23:12;;;;;;;13.70;6.77;;;;;;;-0.11;50.40;99255.29;1736332;81;21199;-58
2021/03/10 09:25:45;;;;;;;20.90;8.93;;;;;;;-0.15;50.37;99259.90;1737917;81;21303;-54
2021/03/10 09:28:16;;;;;;;20.40;10.32;;;;;;;-0.15;50.55;99259.90;1746869;82;21147;-55
2021/03/10 09:30:55;;;;;;;16.50;7.97;;;;;;;-0.04;50.77;99253.81;1772664;79;23192;-56
2021/03/10 09:33:29;;;;;;;16.90;7.83;;;;;;;-0.11;50.74;99258.70;1723487;82;21344;-60
2021/03/10 09:36:02;;;;;;;18.07;7.53;;;;;;;-0.10;51.15;99264.22;1783831;80;21205;-61
2021/03/10 09:38:34;;;;;;;16.07;7.33;;;;;;;0.05;51.35;99250.89;1787127;80;21203;-62
2021/03/10 09:41:07;;;;;;;15.73;7.53;;;;;;;0.34;50.88;99254.39;1704791;83;21944;-59
2021/03/10 09:43:43;;;;;;;35.47;10.40;;;;;;;0.48;50.31;99255.33;1720284;82;21174;-57
2021/03/10 09:46:16;;;;;;;20.00;9.07;;;;;;;0.50;50.71;99260.38;1678420;84;21203;-59
2021/03/10 09:48:51;;;;;;;21.85;8.73;;;;;;;0.52;49.62;99259.30;1696780;84;21385;-61
2021/03/10 09:51:29;;;;;;;20.73;7.53;;;;;;;0.41;49.89;99248.22;1630720;85;21648;-58
2021/03/10 09:53:59;;;;;;;22.30;8.63;;;;;;;0.44;50.04;99260.91;1695199;83;21553;-59
2021/03/10 09:56:34;;;;;;;14.43;6.77;;;;;;;0.56;49.74;99259.02;1723843;82;21335;-64
2021/03/10 09:59:10;;;;;;;20.88;8.13;;;;;;;0.56;49.67;99261.61;1748888;82;21577;-60
2021/03/10 10:01:48;;;;;;;18.23;8.13;;;;;;;0.50;49.96;99264.27;1715838;82;21193;-56
2021/03/10 10:04:28;;;;;;;22.67;9.20;;;;;;;0.58;49.78;99257.13;1760659;79;23133;-60
2021/03/10 10:06:59;;;;;;;;;;;;;;;0.50;50.19;99253.41;1738020;82;21288;-61
2021/03/10 10:09:35;;;;;;;18.37;7.07;;;;;;;0.62;50.71;99267.08;1752303;80;20185;-61
2021/03/10 10:12:08;;;;;;;14.40;7.00;;;;;;;0.83;50.39;99255.78;1749174;82;21173;-60
2021/03/10 10:14:40;;;;;;;17.70;7.10;;;;;;;0.95;49.89;99237.34;1719222;82;21613;-65
2021/03/10 10:17:10;;;;;;;24.23;7.77;;;;;;;0.91;49.34;99249.42;1740186;82;21669;-59
2021/03/10 10:19:40;;;;;;;18.73;7.73;;;;;;;0.85;49.96;99249.48;1743303;80;21193;-55
2021/03/10 10:22:10;;;;;;;19.77;7.33;;;;;;;0.82;50.56;99249.77;1746737;80;21212;-62
2021/03/10 10:24:42;;;;;;;20.97;9.40;;;;;;;0.93;50.77;99254.02;1758645;80;21138;-57
2021/03/10 10:27:13;;;;;;;21.42;9.28;;;;;;;1.09;49.96;99258.19;1787264;80;21150;-56
2021/03/10 10:29:45;;;;;;;22.53;9.50;;;;;;;1.07;49.96;99263.98;1692043;84;21178;-58
2021/03/10 10:32:21;;;;;;;19.83;8.57;;;;;;;0.89;50.25;99258.66;1712135;84;21339;-55
2021/03/10 10:34:51;;;;;;;19.57;9.03;;;;;;;0.83;50.11;99250.59;1702696;82;21193;-61
2021/03/10 10:37:21;;;;;;;19.23;8.30;;;;;;;0.75;50.62;99256.47;1678730;84;21168;-60
2021/03/10 10:39:52;;;;;;;21.77;7.80;;;;;;;0.73;50.44;99247.98;1711456;82;21157;-52
2021/03/10 10:42:24;;;;;;;18.10;8.18;;;;;;;0.65;50.68;99254.34;1706988;82;21454;-60
2021/03/10 10:44:59;;;;;;;16.67;8.27;;;;;;;0.53;50.71;99253.16;1678970;85;21156;-60
2021/03/10 10:47:32;;;;;;;17.73;8.37;;;;;;;0.42;50.96;99257.16;1702433;82;21201;-58
2021/03/10 10:50:07;;;;;;;16.63;8.10;;;;;;;0.39;51.89;99246.22;1666057;85;21319;-60
2021/03/10 10:52:39;;;;;;;15.70;8.10;;;;;;;0.44;52.14;99246.16;1664343;85;21213;-60
2021/03/10 10:55:13;;;;;;;23.07;8.57;;;;;;;0.57;51.92;99245.09;1663780;85;21185;-59
2021/03/10 10:57:46;;;;;;;17.97;7.93;;;;;;;0.65;51.63;99242.66;1639868;85;21285;-66
2021/03/10 11:00:20;;;;;;;20.53;9.20;;;;;;;0.76;51.52;99246.42;1669499;84;21651;-66
2021/03/10 11:02:50;;;;;;;23.13;9.60;;;;;;;0.82;51.12;99235.98;1633794;86;21344;-61
2021/03/10 11:05:32;;;;;;;22.80;10.00;;;;;;;0.84;51.36;99238.77;1649940;86;21214;-58
2021/03/10 11:08:04;;;;;;;20.17;8.57;;;;;;;0.81;51.33;99246.03;1659470;84;21238;-65
2021/03/10 11:10:35;;;;;;;17.45;8.50;;;;;;;0.77;51.51;99237.68;1652341;86;21212;-59
2021/03/10 11:13:11;;;;;;;20.23;8.60;;;;;;;0.71;51.73;99242.94;1708923;83;21174;-60
2021/03/10 11:15:45;;;;;;;21.87;9.03;;;;;;;0.74;51.48;99240.53;1623747;85;21268;-55
2021/03/10 11:18:27;;;;;;;19.63;9.50;;;;;;;0.67;51.74;99240.26;1640111;87;21660;-53
2021/03/10 11:20:57;;;;;;;22.70;8.33;;;;;;;0.61;51.93;99238.20;1679134;85;21166;-56
2021/03/10 11:23:30;;;;;;;25.70;10.17;;;;;;;0.48;52.23;99227.27;1688398;82;21197;-56
2021/03/10 11:26:03;;;;;;;20.73;9.37;;;;;;;0.35;52.90;99230.13;1699212;82;21330;-61
2021/03/10 11:28:33;;;;;;;18.83;9.87;;;;;;;0.41;53.37;99226.17;1684055;82;21176;-61
2021/03/10 11:31:05;;;;;;;19.30;9.07;;;;;;;0.42;53.46;99233.81;1686218;84;21239;-58
2021/03/10 11:33:39;;;;;;;16.65;8.23;;;;;;;0.38;53.43;99231.14;1686316;82;21220;-56
2021/03/10 11:36:12;;;;;;;19.40;8.83;;;;;;;0.37;53.81;99232.09;1715189;82;21981;-56
2021/03/10 11:38:46;;;;;;;20.53;9.10;;;;;;;0.32;53.78;99216.11;1723094;82;21194;-55
2021/03/10 11:41:15;;;;;;;17.67;8.53;;;;;;;0.28;53.83;99226.88;1705973;82;21200;-57
2021/03/10 11:43:46;;;;;;;17.77;8.13;;;;;;;0.37;54.43;99224.31;1711159;82;21167;-59
2021/03/10 11:46:16;;;;;;;18.13;8.27;;;;;;;0.44;53.98;99218.11;1724598;82;21154;-57
2021/03/10 11:48:48;;;;;;;16.80;9.00;;;;;;;0.36;54.40;99227.05;1690604;83;21209;-56
2021/03/10 11:51:21;;;;;;;18.60;8.07;;;;;;;0.29;55.00;99228.06;1695478;84;21175;-55
2021/03/10 11:53:50;;;;;;;19.47;9.60;;;;;;;0.25;55.65;99224.91;1739293;82;21205;-54
2021/03/10 11:56:21;;;;;;;;;;;;;;;0.24;55.99;99218.56;1732751;82;21214;-56
2021/03/10 11:58:54;;;;;;;17.60;8.83;;;;;;;0.28;56.23;99224.28;1674106;82;20236;-57
2021/03/10 12:01:35;;;;;;;17.92;8.60;;;;;;;0.17;56.54;99225.20;1707674;82;21335;-56
2021/03/10 12:04:11;;;;;;;16.97;8.97;;;;;;;0.04;57.17;99225.93;1695350;81;21197;-57
2021/03/10 12:06:45;;;;;;;23.80;10.43;;;;;;;0.02;57.64;99220.89;1740742;81;21323;-64
2021/03/10 12:09:19;;;;;;;22.17;10.50;;;;;;;0.01;58.04;99217.95;1739966;81;21191;-68
2021/03/10 12:11:55;;;;;;;19.47;8.90;;;;;;;0.09;58.04;99223.77;1708703;81;21197;-59
2021/03/10 12:14:33;;;;;;;19.53;9.13;;;;;;;0.16;57.50;99224.88;1701830;84;21208;-54
2021/03/10 12:17:10;;;;;;;17.00;9.00;;;;;;;0.15;57.60;99224.53;1732670;81;21339;-58
2021/03/10 12:19:43;;;;;;;21.73;10.93;;;;;;;0.04;57.10;99216.86;1696579;84;21138;-57
2021/03/10 12:22:14;;;;;;;26.37;11.75;;;;;;;-0.05;57.39;99212.00;1731427;82;21280;-57
2021/03/10 12:25:15;;;;;;;18.27;9.08;;;;;;;-0.16;58.25;99213.39;1702820;82;21340;-61
2021/03/10 12:27:50;;;;;;;16.97;9.43;;;;;;;-0.24;59.42;99220.50;1695561;84;21146;-68
2021/03/10 12:30:29;;;;;;;19.90;9.55;;;;;;;-0.35;60.12;99214.11;1718522;82;21182;-57
2021/03/10 12:33:01;;;;;;;18.67;9.80;;;;;;;-0.36;62.04;99217.66;1694544;82;21170;-60
2021/03/10 12:35:33;;;;;;;22.73;9.93;;;;;;;-0.32;62.52;99209.50;1672558;84;21247;-58
2021/03/10 12:38:10;;;;;;;19.50;9.00;;;;;;;-0.30;62.91;99210.66;1707534;82;21166;-60
2021/03/10 12:40:50;;;;;;;16.60;8.50;;;;;;;-0.27;63.14;99216.41;1672791;84;21733;-66
2021/03/10 12:43:42;;;;;;;19.10;9.43;;;;;;;-0.22;62.64;99212.14;1716363;82;21166;-58
2021/03/10 12:46:13;;;;;;;21.63;9.77;;;;;;;-0.15;62.68;99208.07;1696394;84;21189;-55
2021/03/10 12:48:47;;;;;;;18.83;9.63;;;;;;;-0.10;62.47;99197.32;1740570;82;21686;-56
2021/03/10 12:51:17;;;;;;;18.80;10.07;;;;;;;-0.21;63.60;99203.89;1697050;84;21572;-59
2021/03/10 12:53:51;;;;;;;18.87;8.90;;;;;;;-0.36;64.51;99207.30;1715309;82;21162;-56
2021/03/10 12:56:23;;;;;;;18.47;9.53;;;;;;;-0.39;65.56;99213.56;1685562;84;21653;-56
2021/03/10 12:58:57;;;;;;;19.17;9.83;;;;;;;-0.35;66.06;99211.52;1680029;84;21579;-57
2021/03/10 13:01:27;;;;;;;20.20;10.20;;;;;;;-0.25;65.78;99208.50;1699422;82;21940;-56
2021/03/10 13:03:57;;;;;;;17.82;9.43;;;;;;;-0.25;65.97;99206.39;1710799;82;21173;-59
2021/03/10 13:06:31;;;;;;;17.90;9.30;;;;;;;-0.32;66.73;99210.80;1687298;84;21635;-58
2021/03/10 13:09:01;;;;;;;17.33;8.80;;;;;;;-0.41;67.38;99200.38;1686563;84;21193;-55
2021/03/10 13:11:34;;;;;;;20.50;11.23;;;;;;;-0.44;68.21;99217.02;1697891;84;21154;-57
2021/03/10 13:14:09;;;;;;;21.57;11.53;;;;;;;-0.43;69.27;99208.29;1685084;82;21209;-62
2021/03/10 13:16:44;;;;;;;22.40;12.03;;;;;;;-0.37;69.40;99201.30;1723070;82;21179;-58
2021/03/10 13:19:25;;;;;;;22.67;12.07;;;;;;;-0.40;69.72;99210.64;1698367;82;21150;-58
2021/03/10 13:21:57;;;;;;;21.37;10.70;;;;;;;-0.46;70.94;99202.09;1665471;82;21675;-56
2021/03/10 13:24:29;;;;;;;23.70;11.87;;;;;;;-0.56;72.10;99202.03;1687799;82;21158;-58
2021/03/10 13:27:02;;;;;;;24.10;11.77;;;;;;;-0.62;72.50;99203.84;1734316;82;21163;-57
2021/03/10 13:29:32;;;;;;;22.07;12.07;;;;;;;-0.57;73.34;99196.98;1737334;82;21625;-59
2021/03/10 13:32:05;;;;;;;22.13;11.38;;;;;;;-0.49;73.46;99201.52;1745021;82;21629;-55
2021/03/10 13:34:35;;;;;;;20.90;11.88;;;;;;;-0.46;72.47;99196.06;1744858;82;21605;-58
2021/03/10 13:37:10;;;;;;;22.87;11.83;;;;;;;-0.41;72.83;99196.50;1741569;82;21184;-57
2021/03/10 13:39:39;;;;;;;18.60;10.00;;;;;;;-0.34;72.73;99185.98;1720809;82;21592;-59
2021/03/10 13:42:13;;;;;;;20.30;10.40;;;;;;;-0.34;72.56;99193.28;1719399;82;21623;-57
2021/03/10 13:44:47;;;;;;;20.20;10.63;;;;;;;-0.40;73.28;99192.50;1701127;84;21671;-58
2021/03/10 13:47:19;;;;;;;19.30;10.83;;;;;;;-0.42;73.26;99187.91;1691821;82;21387;-58
2021/03/10 13:49:54;;;;;;;21.43;11.83;;;;;;;-0.41;73.79;99190.02;1701426;82;21182;-54
2021/03/10 13:52:26;;;;;;;22.07;12.63;;;;;;;-0.35;74.45;99180.44;1658449;85;21186;-59
2021/03/10 13:54:58;;;;;;;21.00;11.97;;;;;;;-0.27;74.47;99180.63;1628819;88;21230;-61
2021/03/10 13:57:29;;;;;;;21.03;11.87;;;;;;;-0.29;74.22;99184.65;1643787;87;21380;-64
2021/03/10 13:59:58;;;;;;;22.33;11.77;;;;;;;-0.35;74.77;99188.20;1665539;84;21153;-59
2021/03/10 14:02:28;;;;;;;23.33;12.77;;;;;;;-0.35;74.71;99186.91;1715675;82;21192;-60
2021/03/10 14:05:00;;;;;;;22.97;12.43;;;;;;;-0.37;74.66;99183.64;1727891;83;21207;-62
2021/03/10 14:07:34;;;;;;;20.77;11.97;;;;;;;-0.39;74.64;99176.01;1707562;83;21200;-60
2021/03/10 14:10:09;;;;;;;21.67;10.93;;;;;;;-0.38;74.13;99176.34;1731529;83;21192;-60
2021/03/10 14:12:40;;;;;;;20.27;11.83;;;;;;;-0.40;72.37;99178.26;1730030;83;21149;-61
2021/03/10 14:15:11;;;;;;;20.85;11.40;;;;;;;-0.49;72.52;99179.02;1731383;83;21224;-56
2021/03/10 14:17:41;;;;;;;;;;;;;;;-0.51;73.07;99177.53;1734243;83;21160;-58
2021/03/10 14:20:14;;;;;;;22.17;12.00;;;;;;;-0.50;74.16;99183.86;1731472;81;20489;-57
2021/03/10 14:22:53;;;;;;;20.80;11.05;;;;;;;-0.45;74.86;99170.53;1731588;83;21196;-61
2021/03/10 14:25:31;;;;;;;22.60;11.73;;;;;;;-0.39;75.43;99170.01;1731286;81;21209;-60
